sensor_id;sensor_type;location;lat;lon;timestamp;P1;durP1;ratioP1;P2;durP2;ratioP2
28796;SDS011;24974;54.444;18.560;2023-08-20T06:05:04;18.30;;;16.05;;
28796;SDS011;24974;54.444;18.560;2023-08-20T06:07:35;18.92;;;16.92;;
28796;SDS011;24974;54.444;18.560;2023-08-20T06:10:06;18.65;;;15.48;;
28796;SDS011;24974;54.444;18.560;2023-08-20T06:12:37;18.38;;;16.35;;
28796;SDS011;24974;54.444;18.560;2023-08-20T06:15:09;20.08;;;18.05;;
28796;SDS011;24974;54.444;18.560;2023-08-20T06:17:40;20.33;;;18.23;;
28796;SDS011;24974;54.444;18.560;2023-08-20T06:20:10;20.15;;;18.25;;
28796;SDS011;24974;54.444;18.560;2023-08-20T06:22:42;22.17;;;19.88;;
28796;SDS011;24974;54.444;18.560;2023-08-20T06:25:12;22.33;;;20.17;;
28796;SDS011;24974;54.444;18.560;2023-08-20T06:27:43;21.27;;;19.08;;
28796;SDS011;24974;54.444;18.560;2023-08-20T06:30:14;23.80;;;21.58;;
28796;SDS011;24974;54.444;18.560;2023-08-20T06:32:45;23.30;;;21.00;;
28796;SDS011;24974;54.444;18.560;2023-08-20T06:35:15;25.27;;;21.35;;
28796;SDS011;24974;54.444;18.560;2023-08-20T06:37:47;25.25;;;22.80;;
28796;SDS011;24974;54.444;18.560;2023-08-20T06:40:17;24.48;;;22.08;;
28796;SDS011;24974;54.444;18.560;2023-08-20T06:42:48;24.58;;;22.08;;
28796;SDS011;24974;54.444;18.560;2023-08-20T06:45:19;26.02;;;23.50;;
28796;SDS011;24974;54.444;18.560;2023-08-20T06:47:50;26.10;;;23.60;;
28796;SDS011;24974;54.444;18.560;2023-08-20T06:50:21;25.17;;;22.42;;
28796;SDS011;24974;54.444;18.560;2023-08-20T06:52:52;25.88;;;23.42;;
28796;SDS011;24974;54.444;18.560;2023-08-20T06:55:22;26.02;;;23.45;;
28796;SDS011;24974;54.444;18.560;2023-08-20T06:57:53;24.10;;;21.70;;
28796;SDS011;24974;54.444;18.560;2023-08-20T07:00:24;25.73;;;22.85;;
28796;SDS011;24974;54.444;18.560;2023-08-20T07:02:55;23.63;;;21.23;;
28796;SDS011;24974;54.444;18.560;2023-08-20T07:05:28;22.88;;;20.67;;
28796;SDS011;24974;54.444;18.560;2023-08-20T07:07:59;22.38;;;20.27;;
28796;SDS011;24974;54.444;18.560;2023-08-20T07:10:30;21.95;;;19.77;;
28796;SDS011;24974;54.444;18.560;2023-08-20T07:13:01;20.77;;;18.88;;
28796;SDS011;24974;54.444;18.560;2023-08-20T07:15:31;20.33;;;17.77;;
28796;SDS011;24974;54.444;18.560;2023-08-20T07:18:02;20.42;;;18.00;;
28796;SDS011;24974;54.444;18.560;2023-08-20T07:20:33;19.38;;;17.58;;
28796;SDS011;24974;54.444;18.560;2023-08-20T07:23:04;18.23;;;16.35;;
28796;SDS011;24974;54.444;18.560;2023-08-20T07:25:39;20.17;;;18.15;;
28796;SDS011;24974;54.444;18.560;2023-08-20T07:28:11;22.33;;;18.48;;
28796;SDS011;24974;54.444;18.560;2023-08-20T07:30:42;20.63;;;16.70;;
28796;SDS011;24974;54.444;18.560;2023-08-20T07:33:12;18.98;;;17.08;;
28796;SDS011;24974;54.444;18.560;2023-08-20T07:35:43;19.17;;;17.17;;
28796;SDS011;24974;54.444;18.560;2023-08-20T07:38:14;19.63;;;17.52;;
28796;SDS011;24974;54.444;18.560;2023-08-20T07:40:45;20.33;;;18.40;;
28796;SDS011;24974;54.444;18.560;2023-08-20T07:43:15;19.27;;;17.42;;
28796;SDS011;24974;54.444;18.560;2023-08-20T07:45:46;17.90;;;16.08;;
28796;SDS011;24974;54.444;18.560;2023-08-20T07:48:17;19.42;;;17.05;;
28796;SDS011;24974;54.444;18.560;2023-08-20T07:50:47;18.60;;;16.70;;
28796;SDS011;24974;54.444;18.560;2023-08-20T07:53:18;18.23;;;16.30;;
28796;SDS011;24974;54.444;18.560;2023-08-20T07:55:49;18.23;;;16.35;;
28796;SDS011;24974;54.444;18.560;2023-08-20T07:58:20;18.70;;;16.80;;
28796;SDS011;24974;54.444;18.560;2023-08-20T08:00:50;17.10;;;15.60;;
28796;SDS011;24974;54.444;18.560;2023-08-20T08:03:21;17.85;;;16.05;;
28796;SDS011;24974;54.444;18.560;2023-08-20T08:05:52;17.35;;;15.75;;
28796;SDS011;24974;54.444;18.560;2023-08-20T08:08:24;17.95;;;16.20;;
28796;SDS011;24974;54.444;18.560;2023-08-20T08:10:55;18.98;;;17.08;;
28796;SDS011;24974;54.444;18.560;2023-08-20T08:13:25;19.35;;;16.35;;
28796;SDS011;24974;54.444;18.560;2023-08-20T08:15:57;17.83;;;16.13;;
28796;SDS011;24974;54.444;18.560;2023-08-20T08:18:27;18.73;;;16.70;;
28796;SDS011;24974;54.444;18.560;2023-08-20T08:20:58;17.70;;;16.10;;
28796;SDS011;24974;54.444;18.560;2023-08-20T08:23:29;19.25;;;17.25;;
28796;SDS011;24974;54.444;18.560;2023-08-20T08:26:00;18.15;;;16.25;;
28796;SDS011;24974;54.444;18.560;2023-08-20T08:28:30;18.50;;;16.58;;
28796;SDS011;24974;54.444;18.560;2023-08-20T08:31:01;18.30;;;16.05;;
28796;SDS011;24974;54.444;18.560;2023-08-20T08:33:32;17.45;;;15.55;;
28796;SDS011;24974;54.444;18.560;2023-08-20T08:36:03;18.15;;;16.45;;
28796;SDS011;24974;54.444;18.560;2023-08-20T08:38:34;17.38;;;15.55;;
28796;SDS011;24974;54.444;18.560;2023-08-20T08:41:07;16.80;;;15.23;;
28796;SDS011;24974;54.444;18.560;2023-08-20T08:43:41;16.77;;;15.23;;
28796;SDS011;24974;54.444;18.560;2023-08-20T08:46:13;18.13;;;16.30;;
28796;SDS011;24974;54.444;18.560;2023-08-20T08:48:45;18.73;;;16.90;;
28796;SDS011;24974;54.444;18.560;2023-08-20T08:51:17;18.92;;;16.92;;
28796;SDS011;24974;54.444;18.560;2023-08-20T08:53:48;18.30;;;16.45;;
28796;SDS011;24974;54.444;18.560;2023-08-20T08:56:19;16.83;;;15.18;;
28796;SDS011;24974;54.444;18.560;2023-08-20T08:58:50;17.40;;;15.60;;
28796;SDS011;24974;54.444;18.560;2023-08-20T09:01:21;17.00;;;15.30;;
28796;SDS011;24974;54.444;18.560;2023-08-20T09:03:52;14.50;;;13.13;;
28796;SDS011;24974;54.444;18.560;2023-08-20T09:06:23;14.43;;;12.95;;
28796;SDS011;24974;54.444;18.560;2023-08-20T09:09:02;14.45;;;13.00;;
28796;SDS011;24974;54.444;18.560;2023-08-20T09:11:35;13.60;;;12.32;;
28796;SDS011;24974;54.444;18.560;2023-08-20T09:14:06;15.27;;;13.52;;
28796;SDS011;24974;54.444;18.560;2023-08-20T09:16:37;15.50;;;13.85;;
28796;SDS011;24974;54.444;18.560;2023-08-20T09:19:08;16.30;;;14.68;;
28796;SDS011;24974;54.444;18.560;2023-08-20T09:21:38;16.23;;;14.60;;
28796;SDS011;24974;54.444;18.560;2023-08-20T09:24:09;17.88;;;15.30;;
28796;SDS011;24974;54.444;18.560;2023-08-20T09:26:45;15.65;;;13.85;;
28796;SDS011;24974;54.444;18.560;2023-08-20T09:29:16;16.25;;;14.68;;
28796;SDS011;24974;54.444;18.560;2023-08-20T09:31:47;16.67;;;15.18;;
28796;SDS011;24974;54.444;18.560;2023-08-20T09:34:18;15.52;;;14.10;;
28796;SDS011;24974;54.444;18.560;2023-08-20T09:36:49;16.80;;;14.82;;
28796;SDS011;24974;54.444;18.560;2023-08-20T09:39:20;19.25;;;15.75;;
28796;SDS011;24974;54.444;18.560;2023-08-20T09:41:50;17.38;;;15.27;;
28796;SDS011;24974;54.444;18.560;2023-08-20T09:44:21;21.58;;;16.13;;
28796;SDS011;24974;54.444;18.560;2023-08-20T09:46:54;18.23;;;16.08;;
28796;SDS011;24974;54.444;18.560;2023-08-20T09:49:25;18.08;;;16.35;;
28796;SDS011;24974;54.444;18.560;2023-08-20T09:52:00;18.27;;;16.23;;
28796;SDS011;24974;54.444;18.560;2023-08-20T09:57:11;19.35;;;15.43;;
28796;SDS011;24974;54.444;18.560;2023-08-20T09:59:48;19.33;;;15.77;;
28796;SDS011;24974;54.444;18.560;2023-08-20T10:02:21;16.45;;;14.88;;
28796;SDS011;24974;54.444;18.560;2023-08-20T10:04:52;18.23;;;14.68;;
28796;SDS011;24974;54.444;18.560;2023-08-20T10:07:23;18.63;;;15.50;;
28796;SDS011;24974;54.444;18.560;2023-08-20T10:09:56;21.23;;;13.75;;
28796;SDS011;24974;54.444;18.560;2023-08-20T10:12:30;15.52;;;13.40;;
28796;SDS011;24974;54.444;18.560;2023-08-20T10:15:02;17.48;;;14.88;;
28796;SDS011;24974;54.444;18.560;2023-08-20T10:17:34;15.57;;;14.18;;
28796;SDS011;24974;54.444;18.560;2023-08-20T10:20:06;14.52;;;12.40;;
28796;SDS011;24974;54.444;18.560;2023-08-20T10:22:39;15.13;;;13.45;;
28796;SDS011;24974;54.444;18.560;2023-08-20T10:25:11;16.83;;;13.35;;
28796;SDS011;24974;54.444;18.560;2023-08-20T10:27:53;16.98;;;11.40;;
28796;SDS011;24974;54.444;18.560;2023-08-20T10:30:25;12.75;;;11.32;;
28796;SDS011;24974;54.444;18.560;2023-08-20T10:32:57;14.73;;;12.18;;
28796;SDS011;24974;54.444;18.560;2023-08-20T10:38:14;13.55;;;12.23;;
28796;SDS011;24974;54.444;18.560;2023-08-20T10:40:52;13.98;;;12.18;;
28796;SDS011;24974;54.444;18.560;2023-08-20T10:43:37;13.15;;;11.90;;
28796;SDS011;24974;54.444;18.560;2023-08-20T10:48:59;13.03;;;11.40;;
28796;SDS011;24974;54.444;18.560;2023-08-20T10:51:41;15.20;;;13.57;;
28796;SDS011;24974;54.444;18.560;2023-08-20T10:54:13;16.15;;;14.55;;
28796;SDS011;24974;54.444;18.560;2023-08-20T10:56:46;15.75;;;14.25;;
28796;SDS011;24974;54.444;18.560;2023-08-20T10:59:28;16.52;;;14.27;;
28796;SDS011;24974;54.444;18.560;2023-08-20T11:02:03;17.05;;;15.13;;
28796;SDS011;24974;54.444;18.560;2023-08-20T11:04:40;21.20;;;14.93;;
28796;SDS011;24974;54.444;18.560;2023-08-20T11:07:11;30.33;;;18.90;;
28796;SDS011;24974;54.444;18.560;2023-08-20T11:12:20;26.75;;;18.73;;
28796;SDS011;24974;54.444;18.560;2023-08-20T11:14:52;25.70;;;18.60;;
28796;SDS011;24974;54.444;18.560;2023-08-20T11:17:22;27.75;;;19.08;;
28796;SDS011;24974;54.444;18.560;2023-08-20T11:19:53;26.13;;;18.60;;
28796;SDS011;24974;54.444;18.560;2023-08-20T11:22:25;27.15;;;18.05;;
28796;SDS011;24974;54.444;18.560;2023-08-20T11:24:57;26.00;;;17.75;;
28796;SDS011;24974;54.444;18.560;2023-08-20T11:27:28;22.50;;;16.60;;
28796;SDS011;24974;54.444;18.560;2023-08-20T11:29:59;21.33;;;17.60;;
28796;SDS011;24974;54.444;18.560;2023-08-20T11:32:30;20.08;;;16.98;;
28796;SDS011;24974;54.444;18.560;2023-08-20T11:35:02;21.40;;;18.08;;
28796;SDS011;24974;54.444;18.560;2023-08-20T11:37:33;18.75;;;16.70;;
28796;SDS011;24974;54.444;18.560;2023-08-20T11:40:06;24.50;;;17.58;;
28796;SDS011;24974;54.444;18.560;2023-08-20T11:42:38;21.73;;;17.50;;
28796;SDS011;24974;54.444;18.560;2023-08-20T11:45:09;16.25;;;14.65;;
28796;SDS011;24974;54.444;18.560;2023-08-20T11:47:41;17.33;;;13.35;;
28796;SDS011;24974;54.444;18.560;2023-08-20T11:50:12;14.57;;;12.90;;
28796;SDS011;24974;54.444;18.560;2023-08-20T11:52:43;12.93;;;11.65;;
28796;SDS011;24974;54.444;18.560;2023-08-20T11:55:14;23.65;;;11.55;;
28796;SDS011;24974;54.444;18.560;2023-08-20T11:57:52;11.90;;;9.55;;
28796;SDS011;24974;54.444;18.560;2023-08-20T12:00:23;10.30;;;9.05;;
28796;SDS011;24974;54.444;18.560;2023-08-20T12:02:58;14.05;;;8.68;;
28796;SDS011;24974;54.444;18.560;2023-08-20T12:05:29;10.27;;;9.25;;
28796;SDS011;24974;54.444;18.560;2023-08-20T12:08:01;8.90;;;8.00;;
28796;SDS011;24974;54.444;18.560;2023-08-20T12:10:33;12.02;;;7.38;;
28796;SDS011;24974;54.444;18.560;2023-08-20T12:13:04;8.68;;;7.30;;
28796;SDS011;24974;54.444;18.560;2023-08-20T12:15:35;10.88;;;8.07;;
28796;SDS011;24974;54.444;18.560;2023-08-20T12:18:06;12.20;;;8.68;;
28796;SDS011;24974;54.444;18.560;2023-08-20T12:20:38;13.10;;;9.10;;
28796;SDS011;24974;54.444;18.560;2023-08-20T12:23:09;10.40;;;9.15;;
28796;SDS011;24974;54.444;18.560;2023-08-20T12:25:40;11.18;;;9.60;;
28796;SDS011;24974;54.444;18.560;2023-08-20T12:28:10;13.68;;;10.50;;
28796;SDS011;24974;54.444;18.560;2023-08-20T12:30:41;12.20;;;10.95;;
28796;SDS011;24974;54.444;18.560;2023-08-20T12:33:12;12.63;;;11.32;;
28796;SDS011;24974;54.444;18.560;2023-08-20T12:35:43;14.60;;;12.40;;
28796;SDS011;24974;54.444;18.560;2023-08-20T12:38:14;16.17;;;12.30;;
28796;SDS011;24974;54.444;18.560;2023-08-20T12:40:45;13.52;;;10.98;;
28796;SDS011;24974;54.444;18.560;2023-08-20T12:43:16;14.93;;;11.75;;
28796;SDS011;24974;54.444;18.560;2023-08-20T12:45:47;15.63;;;13.35;;
28796;SDS011;24974;54.444;18.560;2023-08-20T12:48:18;15.82;;;13.30;;
28796;SDS011;24974;54.444;18.560;2023-08-20T12:50:49;14.50;;;13.10;;
28796;SDS011;24974;54.444;18.560;2023-08-20T12:53:20;15.02;;;12.60;;
28796;SDS011;24974;54.444;18.560;2023-08-20T12:55:51;13.68;;;12.27;;
28796;SDS011;24974;54.444;18.560;2023-08-20T12:58:22;14.02;;;12.65;;
28796;SDS011;24974;54.444;18.560;2023-08-20T13:00:53;11.60;;;10.40;;
28796;SDS011;24974;54.444;18.560;2023-08-20T13:03:24;12.93;;;11.73;;
28796;SDS011;24974;54.444;18.560;2023-08-20T13:05:55;13.43;;;9.77;;
28796;SDS011;24974;54.444;18.560;2023-08-20T13:08:29;9.88;;;8.90;;
28796;SDS011;24974;54.444;18.560;2023-08-20T13:11:01;12.93;;;9.30;;
28796;SDS011;24974;54.444;18.560;2023-08-20T13:13:34;13.90;;;9.05;;
28796;SDS011;24974;54.444;18.560;2023-08-20T13:16:06;11.43;;;9.75;;
28796;SDS011;24974;54.444;18.560;2023-08-20T13:18:38;11.23;;;9.27;;
28796;SDS011;24974;54.444;18.560;2023-08-20T13:21:09;10.45;;;8.18;;
28796;SDS011;24974;54.444;18.560;2023-08-20T13:23:39;8.38;;;7.68;;
28796;SDS011;24974;54.444;18.560;2023-08-20T13:26:11;8.43;;;7.70;;
28796;SDS011;24974;54.444;18.560;2023-08-20T13:28:41;8.73;;;7.82;;
28796;SDS011;24974;54.444;18.560;2023-08-20T13:31:12;11.20;;;7.25;;
28796;SDS011;24974;54.444;18.560;2023-08-20T13:33:44;9.38;;;8.30;;
28796;SDS011;24974;54.444;18.560;2023-08-20T13:36:14;11.02;;;7.50;;
28796;SDS011;24974;54.444;18.560;2023-08-20T13:38:46;8.45;;;7.40;;
28796;SDS011;24974;54.444;18.560;2023-08-20T13:41:16;13.32;;;7.75;;
28796;SDS011;24974;54.444;18.560;2023-08-20T13:43:47;7.75;;;7.05;;
28796;SDS011;24974;54.444;18.560;2023-08-20T13:46:18;7.32;;;6.65;;
28796;SDS011;24974;54.444;18.560;2023-08-20T13:48:49;9.45;;;6.72;;
28796;SDS011;24974;54.444;18.560;2023-08-20T13:51:19;10.43;;;7.45;;
28796;SDS011;24974;54.444;18.560;2023-08-20T13:53:50;7.75;;;6.93;;
28796;SDS011;24974;54.444;18.560;2023-08-20T13:56:21;7.90;;;7.07;;
28796;SDS011;24974;54.444;18.560;2023-08-20T13:58:53;10.82;;;6.95;;
28796;SDS011;24974;54.444;18.560;2023-08-20T14:01:24;9.52;;;6.28;;
28796;SDS011;24974;54.444;18.560;2023-08-20T14:03:55;7.63;;;6.00;;
28796;SDS011;24974;54.444;18.560;2023-08-20T14:06:25;8.40;;;5.82;;
28796;SDS011;24974;54.444;18.560;2023-08-20T14:08:56;9.13;;;5.57;;
28796;SDS011;24974;54.444;18.560;2023-08-20T14:11:27;7.63;;;6.28;;
28796;SDS011;24974;54.444;18.560;2023-08-20T14:13:58;6.35;;;5.63;;
28796;SDS011;24974;54.444;18.560;2023-08-20T14:16:28;8.95;;;6.22;;
28796;SDS011;24974;54.444;18.560;2023-08-20T14:18:59;9.02;;;6.30;;
28796;SDS011;24974;54.444;18.560;2023-08-20T14:21:30;9.85;;;6.07;;
28796;SDS011;24974;54.444;18.560;2023-08-20T14:24:01;7.70;;;5.30;;
28796;SDS011;24974;54.444;18.560;2023-08-20T14:26:32;7.55;;;5.43;;
28796;SDS011;24974;54.444;18.560;2023-08-20T14:29:03;10.23;;;6.13;;
28796;SDS011;24974;54.444;18.560;2023-08-20T14:31:34;12.07;;;5.93;;
28796;SDS011;24974;54.444;18.560;2023-08-20T14:34:04;10.35;;;6.85;;
28796;SDS011;24974;54.444;18.560;2023-08-20T14:36:35;8.98;;;6.95;;
28796;SDS011;24974;54.444;18.560;2023-08-20T14:39:06;7.38;;;6.68;;
28796;SDS011;24974;54.444;18.560;2023-08-20T14:41:37;8.77;;;6.88;;
28796;SDS011;24974;54.444;18.560;2023-08-20T14:44:08;10.20;;;7.53;;
28796;SDS011;24974;54.444;18.560;2023-08-20T14:46:38;8.50;;;7.40;;
28796;SDS011;24974;54.444;18.560;2023-08-20T14:49:09;10.20;;;8.38;;
28796;SDS011;24974;54.444;18.560;2023-08-20T14:51:40;11.02;;;9.23;;
28796;SDS011;24974;54.444;18.560;2023-08-20T14:54:11;9.43;;;8.15;;
28796;SDS011;24974;54.444;18.560;2023-08-20T14:56:41;9.15;;;8.27;;
28796;SDS011;24974;54.444;18.560;2023-08-20T14:59:12;9.70;;;8.73;;
28796;SDS011;24974;54.444;18.560;2023-08-20T15:01:43;11.88;;;8.73;;
28796;SDS011;24974;54.444;18.560;2023-08-20T15:04:14;9.68;;;8.65;;
28796;SDS011;24974;54.444;18.560;2023-08-20T15:06:45;9.82;;;8.82;;
28796;SDS011;24974;54.444;18.560;2023-08-20T15:09:15;10.93;;;9.65;;
28796;SDS011;24974;54.444;18.560;2023-08-20T15:11:46;11.32;;;10.10;;
28796;SDS011;24974;54.444;18.560;2023-08-20T15:14:17;11.02;;;9.90;;
28796;SDS011;24974;54.444;18.560;2023-08-20T15:16:48;10.15;;;9.15;;
28796;SDS011;24974;54.444;18.560;2023-08-20T15:19:18;9.98;;;9.10;;
28796;SDS011;24974;54.444;18.560;2023-08-20T15:21:49;10.10;;;8.77;;
28796;SDS011;24974;54.444;18.560;2023-08-20T15:24:20;10.10;;;9.15;;
28796;SDS011;24974;54.444;18.560;2023-08-20T15:26:51;10.43;;;9.38;;
28796;SDS011;24974;54.444;18.560;2023-08-20T15:29:21;10.30;;;9.30;;
28796;SDS011;24974;54.444;18.560;2023-08-20T15:31:52;11.15;;;10.05;;
28796;SDS011;24974;54.444;18.560;2023-08-20T15:34:23;10.93;;;9.93;;
28796;SDS011;24974;54.444;18.560;2023-08-20T15:36:54;11.25;;;9.50;;
28796;SDS011;24974;54.444;18.560;2023-08-20T15:39:24;8.90;;;7.97;;
28796;SDS011;24974;54.444;18.560;2023-08-20T15:41:55;9.65;;;7.68;;
28796;SDS011;24974;54.444;18.560;2023-08-20T15:44:26;8.82;;;8.02;;
28796;SDS011;24974;54.444;18.560;2023-08-20T15:46:57;8.45;;;7.40;;
28796;SDS011;24974;54.444;18.560;2023-08-20T15:49:27;9.57;;;7.93;;
28796;SDS011;24974;54.444;18.560;2023-08-20T15:51:58;12.65;;;8.10;;
28796;SDS011;24974;54.444;18.560;2023-08-20T15:54:29;9.82;;;8.05;;
28796;SDS011;24974;54.444;18.560;2023-08-20T15:57:00;10.05;;;7.30;;
28796;SDS011;24974;54.444;18.560;2023-08-20T15:59:31;9.95;;;6.80;;
28796;SDS011;24974;54.444;18.560;2023-08-20T16:02:02;12.68;;;7.32;;
28796;SDS011;24974;54.444;18.560;2023-08-20T16:04:33;11.43;;;7.47;;
28796;SDS011;24974;54.444;18.560;2023-08-20T16:07:04;8.00;;;7.22;;
28796;SDS011;24974;54.444;18.560;2023-08-20T16:09:37;14.70;;;7.05;;
28796;SDS011;24974;54.444;18.560;2023-08-20T16:12:08;7.80;;;6.72;;
28796;SDS011;24974;54.444;18.560;2023-08-20T16:14:40;7.85;;;7.07;;
28796;SDS011;24974;54.444;18.560;2023-08-20T16:17:10;6.90;;;6.20;;
28796;SDS011;24974;54.444;18.560;2023-08-20T16:19:41;11.75;;;6.70;;
28796;SDS011;24974;54.444;18.560;2023-08-20T16:22:12;8.05;;;6.38;;
28796;SDS011;24974;54.444;18.560;2023-08-20T16:24:45;10.80;;;6.60;;
28796;SDS011;24974;54.444;18.560;2023-08-20T16:27:16;9.25;;;6.40;;
28796;SDS011;24974;54.444;18.560;2023-08-20T16:29:47;6.97;;;6.28;;
28796;SDS011;24974;54.444;18.560;2023-08-20T16:32:18;8.35;;;6.07;;
28796;SDS011;24974;54.444;18.560;2023-08-20T16:34:50;11.65;;;6.43;;
28796;SDS011;24974;54.444;18.560;2023-08-20T16:37:21;10.35;;;6.60;;
28796;SDS011;24974;54.444;18.560;2023-08-20T16:39:52;9.02;;;8.05;;
28796;SDS011;24974;54.444;18.560;2023-08-20T16:42:23;10.88;;;7.90;;
28796;SDS011;24974;54.444;18.560;2023-08-20T16:44:53;9.52;;;8.52;;
28796;SDS011;24974;54.444;18.560;2023-08-20T16:47:24;10.25;;;8.43;;
28796;SDS011;24974;54.444;18.560;2023-08-20T16:49:55;10.10;;;9.20;;
28796;SDS011;24974;54.444;18.560;2023-08-20T16:52:26;10.70;;;9.73;;
28796;SDS011;24974;54.444;18.560;2023-08-20T16:54:57;14.68;;;9.30;;
28796;SDS011;24974;54.444;18.560;2023-08-20T16:57:28;9.80;;;8.90;;
28796;SDS011;24974;54.444;18.560;2023-08-20T16:59:59;9.70;;;8.80;;
28796;SDS011;24974;54.444;18.560;2023-08-20T17:02:30;16.50;;;9.15;;
28796;SDS011;24974;54.444;18.560;2023-08-20T17:05:01;11.13;;;9.20;;
28796;SDS011;24974;54.444;18.560;2023-08-20T17:07:32;14.38;;;9.93;;
28796;SDS011;24974;54.444;18.560;2023-08-20T17:10:03;13.95;;;10.13;;
28796;SDS011;24974;54.444;18.560;2023-08-20T17:12:34;11.73;;;9.55;;
28796;SDS011;24974;54.444;18.560;2023-08-20T17:15:05;11.25;;;9.98;;
28796;SDS011;24974;54.444;18.560;2023-08-20T17:17:37;13.15;;;11.07;;
28796;SDS011;24974;54.444;18.560;2023-08-20T17:20:08;13.32;;;10.55;;
28796;SDS011;24974;54.444;18.560;2023-08-20T17:22:42;11.23;;;10.20;;
28796;SDS011;24974;54.444;18.560;2023-08-20T17:25:13;12.10;;;9.88;;
28796;SDS011;24974;54.444;18.560;2023-08-20T17:27:44;11.93;;;10.18;;
28796;SDS011;24974;54.444;18.560;2023-08-20T17:30:15;11.25;;;10.07;;
28796;SDS011;24974;54.444;18.560;2023-08-20T17:32:45;12.52;;;11.23;;
28796;SDS011;24974;54.444;18.560;2023-08-20T17:35:16;11.30;;;10.07;;
28796;SDS011;24974;54.444;18.560;2023-08-20T17:37:47;11.60;;;10.32;;
28796;SDS011;24974;54.444;18.560;2023-08-20T17:40:18;13.50;;;10.40;;
28796;SDS011;24974;54.444;18.560;2023-08-20T17:42:49;11.13;;;9.90;;
28796;SDS011;24974;54.444;18.560;2023-08-20T17:45:20;9.75;;;8.85;;
28796;SDS011;24974;54.444;18.560;2023-08-20T17:47:51;10.15;;;8.90;;
28796;SDS011;24974;54.444;18.560;2023-08-20T17:50:21;10.15;;;9.15;;
28796;SDS011;24974;54.444;18.560;2023-08-20T17:52:52;10.13;;;9.13;;
28796;SDS011;24974;54.444;18.560;2023-08-20T17:55:23;10.25;;;9.25;;
28796;SDS011;24974;54.444;18.560;2023-08-20T17:57:54;9.65;;;8.68;;
28796;SDS011;24974;54.444;18.560;2023-08-20T18:00:25;9.57;;;8.68;;
28796;SDS011;24974;54.444;18.560;2023-08-20T18:02:56;9.57;;;7.88;;
28796;SDS011;24974;54.444;18.560;2023-08-20T18:05:27;10.02;;;8.23;;
28796;SDS011;24974;54.444;18.560;2023-08-20T18:07:58;9.25;;;8.35;;
28796;SDS011;24974;54.444;18.560;2023-08-20T18:10:29;10.25;;;8.45;;
28796;SDS011;24974;54.444;18.560;2023-08-20T18:12:59;9.18;;;8.27;;
28796;SDS011;24974;54.444;18.560;2023-08-20T18:15:32;12.38;;;8.35;;
28796;SDS011;24974;54.444;18.560;2023-08-20T18:18:03;8.82;;;7.85;;
28796;SDS011;24974;54.444;18.560;2023-08-20T18:20:34;9.07;;;8.27;;
28796;SDS011;24974;54.444;18.560;2023-08-20T18:23:05;10.65;;;8.50;;
28796;SDS011;24974;54.444;18.560;2023-08-20T18:25:36;8.90;;;8.00;;
28796;SDS011;24974;54.444;18.560;2023-08-20T18:28:07;7.95;;;7.15;;
28796;SDS011;24974;54.444;18.560;2023-08-20T18:30:37;8.65;;;6.68;;
28796;SDS011;24974;54.444;18.560;2023-08-20T18:33:08;7.15;;;6.45;;
28796;SDS011;24974;54.444;18.560;2023-08-20T18:35:39;6.95;;;6.25;;
28796;SDS011;24974;54.444;18.560;2023-08-20T18:38:18;8.00;;;6.80;;
28796;SDS011;24974;54.444;18.560;2023-08-20T18:41:10;8.55;;;7.10;;
28796;SDS011;24974;54.444;18.560;2023-08-20T18:43:42;7.72;;;6.97;;
28796;SDS011;24974;54.444;18.560;2023-08-20T18:46:14;7.78;;;6.97;;
28796;SDS011;24974;54.444;18.560;2023-08-20T18:48:44;7.50;;;6.72;;
28796;SDS011;24974;54.444;18.560;2023-08-20T18:51:18;7.80;;;7.00;;
28796;SDS011;24974;54.444;18.560;2023-08-20T18:53:51;8.43;;;7.45;;
28796;SDS011;24974;54.444;18.560;2023-08-20T18:56:23;9.05;;;7.10;;
28796;SDS011;24974;54.444;18.560;2023-08-20T18:58:54;11.05;;;7.13;;
28796;SDS011;24974;54.444;18.560;2023-08-20T19:01:24;8.00;;;7.22;;
28796;SDS011;24974;54.444;18.560;2023-08-20T19:03:55;10.63;;;8.00;;
28796;SDS011;24974;54.444;18.560;2023-08-20T19:06:26;13.65;;;7.20;;
28796;SDS011;24974;54.444;18.560;2023-08-20T19:08:57;9.52;;;7.28;;
28796;SDS011;24974;54.444;18.560;2023-08-20T19:11:28;10.25;;;7.10;;
28796;SDS011;24974;54.444;18.560;2023-08-20T19:13:59;8.48;;;7.65;;
28796;SDS011;24974;54.444;18.560;2023-08-20T19:16:30;9.15;;;7.05;;
28796;SDS011;24974;54.444;18.560;2023-08-20T19:19:01;12.35;;;7.78;;
28796;SDS011;24974;54.444;18.560;2023-08-20T19:21:31;8.57;;;7.70;;
28796;SDS011;24974;54.444;18.560;2023-08-20T19:24:02;8.43;;;6.88;;
28796;SDS011;24974;54.444;18.560;2023-08-20T19:26:34;7.82;;;6.85;;
28796;SDS011;24974;54.444;18.560;2023-08-20T19:29:05;7.55;;;6.22;;
28796;SDS011;24974;54.444;18.560;2023-08-20T19:31:36;7.93;;;6.20;;
28796;SDS011;24974;54.444;18.560;2023-08-20T19:34:07;7.78;;;6.05;;
28796;SDS011;24974;54.444;18.560;2023-08-20T19:36:38;8.02;;;6.35;;
28796;SDS011;24974;54.444;18.560;2023-08-20T19:39:10;7.10;;;6.35;;
28796;SDS011;24974;54.444;18.560;2023-08-20T19:41:41;6.38;;;5.60;;
28796;SDS011;24974;54.444;18.560;2023-08-20T19:44:12;9.32;;;6.25;;
28796;SDS011;24974;54.444;18.560;2023-08-20T19:46:43;7.32;;;6.07;;
28796;SDS011;24974;54.444;18.560;2023-08-20T19:49:14;8.95;;;6.00;;
28796;SDS011;24974;54.444;18.560;2023-08-20T19:51:44;8.07;;;6.18;;
28796;SDS011;24974;54.444;18.560;2023-08-20T19:54:15;7.00;;;6.30;;
28796;SDS011;24974;54.444;18.560;2023-08-20T19:56:48;8.35;;;7.10;;
28796;SDS011;24974;54.444;18.560;2023-08-20T19:59:19;10.02;;;7.90;;
28796;SDS011;24974;54.444;18.560;2023-08-20T20:01:51;8.57;;;7.13;;
28796;SDS011;24974;54.444;18.560;2023-08-20T20:04:22;8.70;;;6.97;;
28796;SDS011;24974;54.444;18.560;2023-08-20T20:06:54;10.00;;;7.47;;
28796;SDS011;24974;54.444;18.560;2023-08-20T20:09:26;9.00;;;7.60;;
28796;SDS011;24974;54.444;18.560;2023-08-20T20:11:56;8.40;;;7.47;;
28796;SDS011;24974;54.444;18.560;2023-08-20T20:14:27;9.20;;;7.40;;
28796;SDS011;24974;54.444;18.560;2023-08-20T20:16:58;10.02;;;6.95;;
28796;SDS011;24974;54.444;18.560;2023-08-20T20:19:29;7.88;;;7.05;;
28796;SDS011;24974;54.444;18.560;2023-08-20T20:22:00;8.55;;;6.70;;
28796;SDS011;24974;54.444;18.560;2023-08-20T20:24:31;7.57;;;6.80;;
28796;SDS011;24974;54.444;18.560;2023-08-20T20:27:01;8.23;;;6.13;;
28796;SDS011;24974;54.444;18.560;2023-08-20T20:29:32;7.85;;;6.40;;
28796;SDS011;24974;54.444;18.560;2023-08-20T20:32:03;7.40;;;6.28;;
28796;SDS011;24974;54.444;18.560;2023-08-20T20:34:34;6.47;;;5.65;;
28796;SDS011;24974;54.444;18.560;2023-08-20T20:37:05;9.27;;;6.03;;
28796;SDS011;24974;54.444;18.560;2023-08-20T20:39:37;6.82;;;5.65;;
28796;SDS011;24974;54.444;18.560;2023-08-20T20:42:08;10.63;;;6.45;;
28796;SDS011;24974;54.444;18.560;2023-08-20T20:44:39;11.13;;;6.28;;
28796;SDS011;24974;54.444;18.560;2023-08-20T20:47:10;6.63;;;4.95;;
28796;SDS011;24974;54.444;18.560;2023-08-20T20:49:41;7.05;;;5.18;;
28796;SDS011;24974;54.444;18.560;2023-08-20T20:52:12;7.00;;;5.45;;
28796;SDS011;24974;54.444;18.560;2023-08-20T20:54:43;6.43;;;5.05;;
28796;SDS011;24974;54.444;18.560;2023-08-20T20:57:14;6.60;;;5.20;;
28796;SDS011;24974;54.444;18.560;2023-08-20T20:59:45;8.60;;;4.93;;